Time;durP1;ratioP1;P1;durP2;ratioP2;P2;SDS_P1;SDS_P2;PMS_P1;PMS_P2;Temp;Humidity;BMP_temperature;BMP_pressure;BME280_temperature;BME280_humidity;BME280_pressure;Samples;Min_cycle;Max_cycle;Signal;HPM_P1;HPM_P2
2023/05/23 00:01:42;;;;;;;15.20;8.48;;;14.10;99.90;;;;;;5031583;28;20055;-83
2023/05/23 00:04:08;;;;;;;24.67;9.40;;;14.10;99.90;;;;;;5014917;28;20040;-83
2023/05/23 00:06:37;;;;;;;20.38;8.32;;;14.10;99.90;;;;;;5064764;28;20055;-83
2023/05/23 00:09:03;;;;;;;18.92;7.50;;;14.10;99.90;;;;;;5048029;28;20052;-83
2023/05/23 00:11:29;;;;;;;20.95;7.82;;;14.20;99.90;;;;;;5064849;28;20044;-82
2023/05/23 00:13:59;;;;;;;20.38;8.07;;;14.20;99.90;;;;;;5047291;28;20076;-82
2023/05/23 00:16:25;;;;;;;17.38;7.80;;;14.20;99.90;;;;;;5064294;28;20049;-82
2023/05/23 00:18:52;;;;;;;17.98;8.88;;;14.10;99.90;;;;;;5047377;28;20098;-82
2023/05/23 00:21:18;;;;;;;19.05;8.40;;;14.10;99.90;;;;;;5014287;28;20189;-81
2023/05/23 00:23:43;;;;;;;14.98;8.82;;;14.10;99.90;;;;;;5047852;28;20072;-81
2023/05/23 00:26:09;;;;;;;17.75;7.75;;;14.10;99.90;;;;;;5063268;28;20048;-82
2023/05/23 00:28:37;;;;;;;16.35;7.53;;;14.10;99.90;;;;;;5063852;28;20046;-82
2023/05/23 00:31:02;;;;;;;19.08;8.23;;;14.10;99.90;;;;;;5063464;28;20055;-82
2023/05/23 00:33:28;;;;;;;16.77;7.85;;;14.00;99.90;;;;;;5046679;28;20048;-82
2023/05/23 00:35:54;;;;;;;19.90;8.85;;;14.50;99.90;;;;;;5047368;28;20103;-82
2023/05/23 00:38:20;;;;;;;13.77;8.93;;;13.90;99.90;;;;;;5046592;28;20393;-82
2023/05/23 00:40:47;;;;;;;18.10;9.52;;;13.90;99.90;;;;;;5063926;28;20571;-82
2023/05/23 00:43:12;;;;;;;22.13;9.50;;;13.90;99.90;;;;;;5063063;28;20577;-81
2023/05/23 00:45:38;;;;;;;14.82;8.93;;;13.80;99.90;;;;;;5047357;28;20136;-81
2023/05/23 00:48:05;;;;;;;18.48;8.63;;;13.80;99.90;;;;;;5046955;28;20485;-81
2023/05/23 00:50:32;;;;;;;12.48;7.95;;;13.80;99.90;;;;;;5046721;28;20052;-82
2023/05/23 00:53:00;;;;;;;15.18;8.02;;;13.70;99.90;;;;;;5047420;28;20052;-81
2023/05/23 00:55:26;;;;;;;16.10;8.05;;;13.70;99.90;;;;;;5046772;28;20051;-81
2023/05/23 00:57:55;;;;;;;11.98;6.75;;;13.70;99.90;;;;;;5047090;28;20110;-81
2023/05/23 01:00:23;;;;;;;11.70;6.47;;;14.80;99.90;;;;;;5063344;28;20043;-81
2023/05/23 01:02:52;;;;;;;15.02;6.45;;;13.70;99.90;;;;;;5046484;28;20040;-82
2023/05/23 01:05:21;;;;;;;9.75;5.80;;;13.70;99.90;;;;;;5030206;28;20044;-82
2023/05/23 01:07:48;;;;;;;17.25;6.50;;;13.70;99.90;;;;;;5063581;28;20551;-82
2023/05/23 01:10:15;;;;;;;13.82;5.97;;;13.60;99.90;;;;;;5063014;28;20049;-81
2023/05/23 01:13:00;;;;;;;9.40;5.40;;;13.70;99.90;;;;;;5045924;28;20041;-81
2023/05/23 01:15:46;;;;;;;8.68;4.72;;;13.60;99.90;;;;;;5006629;28;20138;-82
2023/05/23 01:18:16;;;;;;;7.97;3.85;;;13.60;99.90;;;;;;5062728;28;20059;-82
2023/05/23 01:21:00;;;;;;;8.05;4.18;;;13.60;99.90;;;;;;5062867;28;20045;-82
2023/05/23 01:23:46;;;;;;;9.68;3.80;;;13.60;99.90;;;;;;5063871;28;20444;-82
2023/05/23 01:26:33;;;;;;;6.45;4.10;;;13.60;99.90;;;;;;5031981;28;20065;-82
2023/05/23 01:29:28;;;;;;;9.48;3.83;;;13.60;99.90;;;;;;5063216;28;20379;-82
2023/05/23 01:31:56;;;;;;;13.90;5.75;;;13.60;99.90;;;;;;5062546;28;20067;-82
2023/05/23 01:34:21;;;;;;;17.02;5.50;;;13.50;99.90;;;;;;5061999;28;20055;-81
2023/05/23 01:36:53;;;;;;;19.50;5.45;;;13.50;99.90;;;;;;5062915;28;20066;-82
2023/05/23 01:39:18;;;;;;;16.48;5.13;;;13.40;99.90;;;;;;5045484;28;20466;-83
2023/05/23 01:41:44;;;;;;;14.52;5.53;;;13.50;99.90;;;;;;5045862;28;20056;-82
2023/05/23 01:44:10;;;;;;;17.20;5.45;;;13.40;99.90;;;;;;5045633;28;20060;-82
2023/05/23 01:46:38;;;;;;;10.70;4.70;;;13.30;99.90;;;;;;5062861;28;20040;-82
2023/05/23 01:49:05;;;;;;;13.32;5.03;;;13.30;99.90;;;;;;5046534;28;20048;-82
2023/05/23 01:51:32;;;;;;;18.52;5.35;;;13.20;99.90;;;;;;5061807;28;20044;-82
2023/05/23 01:53:59;;;;;;;20.00;5.43;;;13.10;99.90;;;;;;5062891;28;20053;-82
2023/05/23 01:56:26;;;;;;;12.13;5.28;;;13.10;99.90;;;;;;5045259;28;20493;-82
2023/05/23 01:58:53;;;;;;;13.95;4.82;;;13.00;99.90;;;;;;5029038;28;20090;-83
2023/05/23 02:01:19;;;;;;;14.52;5.65;;;13.00;99.90;;;;;;5045333;28;20489;-82
2023/05/23 02:03:45;;;;;;;13.55;6.32;;;13.00;99.90;;;;;;5029437;28;20032;-82
2023/05/23 02:06:11;;;;;;;20.35;5.90;;;13.00;99.90;;;;;;5046305;28;20454;-82
2023/05/23 02:08:36;;;;;;;15.57;5.53;;;12.90;99.90;;;;;;5045144;28;20040;-81
2023/05/23 02:11:02;;;;;;;11.23;4.47;;;12.90;99.90;;;;;;5045574;28;20140;-82
2023/05/23 02:13:28;;;;;;;12.35;5.47;;;12.80;99.90;;;;;;5062047;28;20097;-82
2023/05/23 02:15:54;;;;;;;13.05;5.07;;;12.80;99.90;;;;;;5062016;28;20463;-82
2023/05/23 02:18:20;;;;;;;15.00;4.50;;;12.80;99.90;;;;;;5045691;28;20063;-83
2023/05/23 02:20:45;;;;;;;15.82;4.75;;;12.70;99.90;;;;;;5046303;28;20063;-83
2023/05/23 02:23:11;;;;;;;14.40;4.45;;;12.70;99.90;;;;;;5045645;28;20496;-83
2023/05/23 02:25:37;;;;;;;16.77;4.63;;;12.70;99.90;;;;;;5061395;28;20052;-82
2023/05/23 02:28:03;;;;;;;23.23;5.57;;;12.70;99.90;;;;;;5046032;28;20169;-82
2023/05/23 02:30:28;;;;;;;21.63;5.05;;;12.70;99.90;;;;;;5028402;28;20098;-82
2023/05/23 02:32:56;;;;;;;16.50;4.72;;;12.70;99.90;;;;;;5028359;28;20052;-82
2023/05/23 02:35:22;;;;;;;9.85;3.95;;;12.70;99.90;;;;;;5061548;28;20056;-82
2023/05/23 02:37:47;;;;;;;10.32;4.57;;;12.60;99.90;;;;;;5045079;28;20063;-81
2023/05/23 02:40:13;;;;;;;14.32;5.15;;;12.60;99.90;;;;;;5045854;28;20047;-81
2023/05/23 02:42:38;;;;;;;11.18;4.65;;;12.60;99.90;;;;;;5061943;28;20513;-81
2023/05/23 02:45:05;;;;;;;13.48;4.18;;;12.50;99.90;;;;;;5062545;28;20041;-81
2023/05/23 02:47:30;;;;;;;14.63;4.43;;;12.40;99.90;;;;;;5044765;28;20044;-80
2023/05/23 02:49:56;;;;;;;18.15;4.60;;;12.40;99.90;;;;;;5047875;28;20063;-79
2023/05/23 02:52:22;;;;;;;18.58;3.95;;;12.60;99.90;;;;;;5065329;28;20083;-79
2023/05/23 02:54:47;;;;;;;13.80;4.88;;;12.30;99.90;;;;;;5048913;28;20139;-79
2023/05/23 02:57:13;;;;;;;20.67;5.32;;;12.30;99.90;;;;;;5049439;28;20375;-79
2023/05/23 02:59:38;;;;;;;18.05;5.20;;;12.30;99.90;;;;;;5065699;28;20048;-79
2023/05/23 03:02:05;;;;;;;14.07;4.53;;;12.30;99.90;;;;;;5067562;28;20041;-80
2023/05/23 03:04:30;;;;;;;12.30;4.30;;;12.30;99.90;;;;;;5048253;28;20142;-80
2023/05/23 03:06:58;;;;;;;14.57;4.70;;;12.70;99.90;;;;;;5065284;28;20076;-79
2023/05/23 03:09:25;;;;;;;24.65;5.45;;;12.30;99.90;;;;;;5065686;28;20143;-79
2023/05/23 03:11:50;;;;;;;11.88;4.95;;;12.20;99.90;;;;;;5065455;28;20045;-80
2023/05/23 03:14:16;;;;;;;6.43;4.05;;;12.20;99.90;;;;;;5066001;28;20063;-80
2023/05/23 03:16:42;;;;;;;13.73;5.03;;;12.20;99.90;;;;;;5064679;28;20075;-79
2023/05/23 03:19:07;;;;;;;13.85;4.60;;;12.20;99.90;;;;;;5065792;28;20125;-80
2023/05/23 03:21:34;;;;;;;9.60;4.22;;;12.20;99.90;;;;;;5064641;28;20095;-80
2023/05/23 03:24:00;;;;;;;15.70;5.03;;;12.20;99.90;;;;;;5065031;28;20485;-80
2023/05/23 03:26:26;;;;;;;20.08;5.57;;;12.20;99.90;;;;;;5064662;28;20440;-80
2023/05/23 03:28:51;;;;;;;14.05;4.15;;;12.20;99.90;;;;;;5065460;28;20036;-80
2023/05/23 03:31:17;;;;;;;6.65;3.10;;;12.20;99.90;;;;;;5048311;28;20303;-80
2023/05/23 03:33:43;;;;;;;10.60;3.15;;;12.20;99.90;;;;;;5047638;28;20052;-80
2023/05/23 03:36:08;;;;;;;11.30;3.65;;;12.20;99.90;;;;;;5032525;28;20059;-80
2023/05/23 03:38:34;;;;;;;12.27;3.67;;;11.50;99.90;;;;;;5031217;28;20041;-80
2023/05/23 03:41:00;;;;;;;17.70;3.85;;;12.20;99.90;;;;;;5048706;28;20033;-80
2023/05/23 03:43:26;;;;;;;12.02;2.67;;;12.20;99.90;;;;;;5047764;28;20432;-80
2023/05/23 03:45:51;;;;;;;12.55;3.90;;;12.30;99.90;;;;;;5031668;28;20257;-80
2023/05/23 03:48:17;;;;;;;16.05;4.35;;;12.10;99.90;;;;;;5065017;28;20044;-81
2023/05/23 03:50:43;;;;;;;13.38;3.70;;;12.20;99.90;;;;;;5065066;28;20049;-81
2023/05/23 03:53:08;;;;;;;13.02;3.70;;;12.20;99.90;;;;;;5066579;28;20497;-80
2023/05/23 03:55:34;;;;;;;11.18;3.30;;;12.10;99.90;;;;;;5064463;28;20048;-81
2023/05/23 03:58:00;;;;;;;10.63;2.65;;;12.10;99.90;;;;;;5064835;28;20068;-81
2023/05/23 04:00:26;;;;;;;8.95;3.20;;;12.10;99.90;;;;;;5064236;28;20075;-81
2023/05/23 04:02:52;;;;;;;11.07;3.38;;;12.10;99.90;;;;;;5048326;28;20182;-82
2023/05/23 04:05:18;;;;;;;13.68;3.53;;;12.10;99.90;;;;;;5047627;28;20566;-82
2023/05/23 04:07:44;;;;;;;12.82;2.85;;;12.10;99.90;;;;;;5047934;28;20136;-81
2023/05/23 04:10:11;;;;;;;10.85;2.60;;;12.10;99.90;;;;;;5032067;28;20261;-82
2023/05/23 04:12:37;;;;;;;10.60;2.75;;;12.10;99.90;;;;;;5047818;28;20036;-80
2023/05/23 04:15:04;;;;;;;10.65;3.03;;;12.00;99.90;;;;;;5047648;28;20485;-81
2023/05/23 04:17:30;;;;;;;6.35;2.15;;;12.00;99.90;;;;;;5064173;28;20106;-83
2023/05/23 04:19:57;;;;;;;11.65;2.47;;;12.00;99.90;;;;;;5063926;28;20049;-84
2023/05/23 04:22:22;;;;;;;8.45;2.63;;;12.00;99.90;;;;;;5047100;28;20551;-83
2023/05/23 04:24:48;;;;;;;10.23;2.63;;;12.00;99.90;;;;;;5063685;28;20048;-83
2023/05/23 04:27:14;;;;;;;13.85;2.47;;;12.00;99.90;;;;;;5064328;28;20098;-84
2023/05/23 04:29:39;;;;;;;9.70;1.77;;;12.00;99.90;;;;;;5063637;28;20044;-83
2023/05/23 04:32:06;;;;;;;11.30;2.00;;;12.00;99.90;;;;;;5047081;28;20401;-82
2023/05/23 04:34:36;;;;;;;9.27;2.67;;;13.20;99.90;;;;;;5046450;28;20063;-83
2023/05/23 04:37:02;;;;;;;10.55;2.17;;;12.00;99.90;;;;;;5047550;28;20049;-82
2023/05/23 04:39:28;;;;;;;10.38;2.17;;;12.10;99.90;;;;;;5063666;28;20048;-82
2023/05/23 04:41:55;;;;;;;8.77;2.28;;;12.00;99.90;;;;;;5063619;28;20045;-82
2023/05/23 04:44:22;;;;;;;5.93;2.17;;;12.00;99.90;;;;;;5064216;28;20059;-83
2023/05/23 04:46:49;;;;;;;11.18;2.33;;;12.00;99.90;;;;;;5063158;28;20119;-82
2023/05/23 04:49:15;;;;;;;11.45;3.17;;;12.00;99.90;;;;;;5047633;28;20185;-82
2023/05/23 04:51:42;;;;;;;16.13;4.72;;;12.00;99.90;;;;;;5063081;28;20055;-83
2023/05/23 04:54:08;;;;;;;13.30;3.85;;;12.00;99.90;;;;;;5063345;28;20041;-83
2023/05/23 04:56:33;;;;;;;11.80;3.65;;;12.00;99.90;;;;;;5063084;28;20028;-83
2023/05/23 04:58:59;;;;;;;22.05;4.78;;;11.90;99.90;;;;;;5063267;28;20040;-83
2023/05/23 05:01:26;;;;;;;15.52;4.72;;;11.90;99.90;;;;;;5047708;28;20049;-83
2023/05/23 05:03:52;;;;;;;13.80;4.60;;;11.90;99.90;;;;;;5046653;28;20505;-82
2023/05/23 05:06:20;;;;;;;14.70;4.43;;;11.80;99.90;;;;;;5063794;28;20036;-82
2023/05/23 05:08:46;;;;;;;12.80;4.35;;;11.80;99.90;;;;;;5063514;28;20109;-83
2023/05/23 05:11:11;;;;;;;10.52;4.50;;;11.70;99.90;;;;;;5063365;28;20045;-82
2023/05/23 05:13:37;;;;;;;13.25;4.40;;;11.80;99.90;;;;;;5063429;28;20434;-81
2023/05/23 05:16:03;;;;;;;13.02;4.70;;;11.70;99.90;;;;;;5062577;28;20091;-81
2023/05/23 05:18:29;;;;;;;11.10;3.88;;;11.70;99.90;;;;;;5063163;28;20135;-81
2023/05/23 05:20:55;;;;;;;12.73;3.92;;;11.70;99.90;;;;;;5062288;28;20044;-81
2023/05/23 05:23:29;;;;;;;13.70;4.38;;;12.40;99.90;;;;;;5030456;28;20552;-81
2023/05/23 05:25:55;;;;;;;11.20;3.65;;;11.60;99.90;;;;;;5062274;28;20041;-81
2023/05/23 05:28:21;;;;;;;16.60;3.40;;;11.50;99.90;;;;;;5064389;28;20109;-81
2023/05/23 05:30:52;;;;;;;11.00;4.05;;;11.50;99.90;;;;;;5045683;28;20052;-81
2023/05/23 05:33:19;;;;;;;11.20;4.28;;;11.50;99.90;;;;;;5062149;28;20053;-81
2023/05/23 05:35:45;;;;;;;10.45;3.75;;;11.50;99.90;;;;;;5046405;28;20051;-81
2023/05/23 05:38:11;;;;;;;11.75;3.65;;;11.50;99.90;;;;;;5061897;28;20044;-81
2023/05/23 05:40:37;;;;;;;9.57;3.20;;;11.50;99.90;;;;;;5046085;28;20055;-80
2023/05/23 05:43:02;;;;;;;10.38;2.33;;;11.50;99.90;;;;;;5012366;28;20040;-81
2023/05/23 05:45:28;;;;;;;8.70;2.65;;;11.50;99.90;;;;;;5045504;28;20080;-81
2023/05/23 05:47:54;;;;;;;16.65;3.03;;;11.50;99.90;;;;;;5028986;28;20037;-82
2023/05/23 05:50:19;;;;;;;9.02;2.65;;;11.50;99.90;;;;;;5045734;28;20048;-82
2023/05/23 05:52:45;;;;;;;8.07;2.50;;;11.40;99.90;;;;;;5045956;28;20041;-81
2023/05/23 05:55:11;;;;;;;14.43;2.45;;;11.40;99.90;;;;;;5061497;28;20089;-80
2023/05/23 05:57:38;;;;;;;11.88;2.83;;;11.50;99.90;;;;;;5062885;28;20044;-80
2023/05/23 06:00:14;;;;;;;9.50;2.10;;;11.50;99.90;;;;;;5061826;28;20543;-80
2023/05/23 06:02:41;;;;;;;9.02;2.67;;;11.50;99.90;;;;;;5062510;28;20409;-80
2023/05/23 06:05:11;;;;;;;11.55;2.65;;;11.50;99.90;;;;;;5062138;28;20079;-80
2023/05/23 06:07:39;;;;;;;12.73;3.13;;;11.50;99.90;;;;;;5045068;28;20028;-80
2023/05/23 06:10:06;;;;;;;4.25;1.73;;;11.50;99.90;;;;;;5062683;28;20474;-80
2023/05/23 06:12:32;;;;;;;9.45;2.17;;;11.50;99.90;;;;;;5061635;28;20564;-81
2023/05/23 06:14:58;;;;;;;10.52;2.58;;;11.40;99.90;;;;;;5062737;28;20052;-79
2023/05/23 06:17:24;;;;;;;11.07;1.98;;;11.40;99.90;;;;;;5061568;28;20076;-79
2023/05/23 06:19:50;;;;;;;9.73;2.17;;;11.40;99.90;;;;;;5045325;28;20087;-80
2023/05/23 06:22:17;;;;;;;6.60;1.77;;;11.40;99.90;;;;;;5045426;28;20098;-80
2023/05/23 06:24:42;;;;;;;14.57;2.60;;;11.30;99.90;;;;;;5044406;28;20525;-80
2023/05/23 06:27:08;;;;;;;8.73;2.40;;;11.30;99.90;;;;;;5063005;28;20060;-80
2023/05/23 06:29:35;;;;;;;14.55;2.20;;;11.40;99.90;;;;;;5061380;28;20049;-79
2023/05/23 06:32:01;;;;;;;10.20;2.03;;;11.40;99.90;;;;;;5045555;28;20056;-79
2023/05/23 06:34:27;;;;;;;9.98;2.25;;;11.40;99.90;;;;;;5044955;28;20482;-80
2023/05/23 06:36:54;;;;;;;8.20;2.10;;;11.40;99.90;;;;;;5062413;28;20048;-80
2023/05/23 06:39:19;;;;;;;7.00;2.20;;;11.50;99.90;;;;;;5045432;28;20541;-79
2023/05/23 06:41:46;;;;;;;13.65;2.38;;;11.50;99.90;;;;;;5044961;28;20151;-79
2023/05/23 06:44:12;;;;;;;6.25;1.90;;;11.60;99.90;;;;;;5062194;28;20043;-80
2023/05/23 06:46:38;;;;;;;13.88;2.30;;;11.60;99.90;;;;;;5061236;28;20040;-79
2023/05/23 06:49:03;;;;;;;10.32;2.15;;;11.70;99.90;;;;;;5045254;28;20095;-79
2023/05/23 06:51:30;;;;;;;10.18;2.30;;;11.80;99.90;;;;;;5044821;28;20056;-79
2023/05/23 06:53:56;;;;;;;12.80;2.17;;;11.80;99.90;;;;;;5062196;28;20868;-82
2023/05/23 06:56:22;;;;;;;10.93;1.80;;;11.80;99.90;;;;;;5061594;28;20052;-75
2023/05/23 06:58:48;;;;;;;12.27;2.20;;;11.80;99.90;;;;;;5063209;28;20059;-75
2023/05/23 07:01:14;;;;;;;11.65;1.67;;;11.90;99.90;;;;;;5065273;28;20044;-88
2023/05/23 07:03:42;;;;;;;11.77;1.92;;;11.90;99.90;;;;;;5062492;28;20370;-81
2023/05/23 07:06:07;;;;;;;15.82;2.58;;;11.90;99.90;;;;;;5062363;28;20044;-82
2023/05/23 07:08:33;;;;;;;7.82;1.77;;;11.90;99.90;;;;;;5061831;28;20456;-82
2023/05/23 07:10:59;;;;;;;8.98;1.85;;;12.00;99.90;;;;;;5061539;28;20044;-81
2023/05/23 07:13:25;;;;;;;14.65;2.10;;;12.00;99.90;;;;;;5061320;28;20041;-82
2023/05/23 07:15:50;;;;;;;7.72;1.77;;;12.00;99.90;;;;;;5061390;28;20044;-81
2023/05/23 07:18:16;;;;;;;15.30;2.03;;;12.00;99.90;;;;;;5012407;28;20393;-81
2023/05/23 07:20:42;;;;;;;17.02;3.15;;;11.90;99.90;;;;;;5060823;28;20048;-82
2023/05/23 07:23:07;;;;;;;13.65;2.30;;;12.00;99.90;;;;;;5044799;28;20078;-81
2023/05/23 07:25:33;;;;;;;6.95;1.98;;;12.00;99.90;;;;;;5061652;28;20110;-80
2023/05/23 07:27:59;;;;;;;11.82;1.75;;;11.90;99.90;;;;;;5061379;28;20048;-80
2023/05/23 07:30:25;;;;;;;12.02;1.90;;;11.90;99.90;;;;;;5060748;28;20044;-80
2023/05/23 07:32:54;;;;;;;9.77;1.73;;;12.00;99.90;;;;;;5044360;28;20049;-81
2023/05/23 07:35:24;;;;;;;10.38;1.70;;;12.00;99.90;;;;;;5045152;28;20044;-81
2023/05/23 07:37:51;;;;;;;13.77;1.65;;;12.10;99.90;;;;;;5064263;28;20050;-82
2023/05/23 07:40:17;;;;;;;16.60;2.20;;;12.40;99.90;;;;;;5048829;28;20032;-82
2023/05/23 07:42:43;;;;;;;12.10;2.08;;;12.30;99.90;;;;;;5047705;28;20108;-81
2023/05/23 07:45:09;;;;;;;11.57;2.20;;;12.30;99.90;;;;;;5064640;28;20040;-82
2023/05/23 07:47:35;;;;;;;11.27;2.20;;;12.30;99.90;;;;;;5065056;28;20398;-82
2023/05/23 07:50:01;;;;;;;9.25;1.80;;;12.30;99.90;;;;;;5031374;28;20037;-82
2023/05/23 07:52:29;;;;;;;9.57;1.98;;;12.30;99.90;;;;;;5065145;28;20047;-81
2023/05/23 07:54:55;;;;;;;8.32;1.77;;;12.40;99.90;;;;;;5048156;28;20067;-81
2023/05/23 07:57:21;;;;;;;9.75;2.10;;;12.40;99.90;;;;;;5031505;28;20477;-83
2023/05/23 07:59:46;;;;;;;11.48;2.00;;;12.60;99.90;;;;;;5031221;28;20044;-82
2023/05/23 08:02:12;;;;;;;16.20;2.00;;;12.70;99.90;;;;;;5048374;28;20127;-82
2023/05/23 08:04:39;;;;;;;15.70;1.90;;;12.90;99.90;;;;;;5064160;28;20097;-82
2023/05/23 08:07:04;;;;;;;4.68;1.17;;;12.80;99.90;;;;;;5048236;28;20147;-78
2023/05/23 08:09:30;;;;;;;12.43;1.92;;;12.80;99.90;;;;;;5065075;28;20506;-79
2023/05/23 08:11:56;;;;;;;7.50;1.92;;;12.80;99.90;;;;;;5063901;28;20478;-79
2023/05/23 08:14:21;;;;;;;6.53;1.67;;;12.80;99.90;;;;;;5047893;28;20426;-79
2023/05/23 08:16:47;;;;;;;15.88;2.00;;;12.90;99.90;;;;;;5047075;28;20329;-78
2023/05/23 08:19:13;;;;;;;9.75;1.45;;;13.20;99.90;;;;;;5047864;28;20077;-79
2023/05/23 08:21:39;;;;;;;11.70;1.90;;;13.40;99.90;;;;;;5047018;28;20051;-79
2023/05/23 08:24:05;;;;;;;9.98;1.75;;;13.60;99.90;;;;;;5047826;28;20041;-79
2023/05/23 08:26:33;;;;;;;9.55;1.80;;;13.60;99.90;;;;;;5047492;28;20404;-80
2023/05/23 08:29:03;;;;;;;14.55;2.47;;;13.60;99.90;;;;;;5047643;28;20059;-79
2023/05/23 08:31:29;;;;;;;8.95;1.55;;;13.60;99.90;;;;;;5047848;28;20501;-79
2023/05/23 08:33:55;;;;;;;11.55;1.73;;;13.60;99.90;;;;;;5063297;28;20136;-79
2023/05/23 08:36:21;;;;;;;9.20;2.13;;;13.60;99.90;;;;;;5047072;28;20457;-79
2023/05/23 08:38:48;;;;;;;8.82;2.00;;;13.60;99.90;;;;;;5064115;28;20109;-79
2023/05/23 08:41:28;;;;;;;12.77;1.85;;;13.60;99.90;;;;;;5047103;28;20551;-79
2023/05/23 08:43:53;;;;;;;16.17;4.43;;;13.60;99.90;;;;;;5064085;28;20048;-79
2023/05/23 08:46:21;;;;;;;9.23;2.53;;;13.60;99.90;;;;;;5062842;28;20354;-78
2023/05/23 08:48:51;;;;;;;11.13;1.65;;;13.60;99.90;;;;;;5030653;28;20181;-79
2023/05/23 08:51:20;;;;;;;5.25;1.85;;;13.60;99.90;;;;;;5063110;28;20052;-79
2023/05/23 08:53:47;;;;;;;7.35;2.13;;;13.50;99.90;;;;;;5065005;28;20037;-79
2023/05/23 08:56:14;;;;;;;13.43;2.15;;;13.40;99.90;;;;;;5063906;28;20045;-79
2023/05/23 08:58:43;;;;;;;15.02;2.28;;;13.40;99.90;;;;;;5063416;28;20037;-79
2023/05/23 09:01:10;;;;;;;10.35;3.05;;;13.50;99.90;;;;;;5046901;28;20052;-78
2023/05/23 09:03:36;;;;;;;10.43;2.30;;;13.50;99.90;;;;;;5062529;28;20036;-77
2023/05/23 09:06:05;;;;;;;12.68;2.15;;;13.50;99.90;;;;;;5063170;28;20053;-77
2023/05/23 09:08:31;;;;;;;9.70;2.00;;;13.50;99.90;;;;;;5062842;28;20447;-77
2023/05/23 09:10:57;;;;;;;12.00;2.30;;;13.60;99.90;;;;;;5063231;28;20074;-77
2023/05/23 09:13:24;;;;;;;8.63;2.20;;;13.60;99.90;;;;;;5063651;28;20048;-78
2023/05/23 09:16:00;;;;;;;15.82;2.42;;;13.40;99.90;;;;;;5062749;28;20051;-76
2023/05/23 09:18:26;;;;;;;14.70;1.92;;;13.40;99.90;;;;;;5063930;28;20283;-78
2023/05/23 09:20:52;;;;;;;8.77;2.22;;;13.40;99.90;;;;;;5062330;28;20513;-78
2023/05/23 09:23:19;;;;;;;9.07;1.67;;;13.40;99.90;;;;;;5029790;28;20049;-78
2023/05/23 09:25:48;;;;;;;10.48;1.23;;;13.60;99.90;;;;;;5045896;28;20045;-78
2023/05/23 09:28:14;;;;;;;10.45;1.73;;;13.50;99.90;;;;;;5046163;28;20151;-79
2023/05/23 09:30:39;;;;;;;11.38;1.67;;;13.40;99.90;;;;;;5063196;28;20083;-79
2023/05/23 09:33:06;;;;;;;7.13;1.40;;;13.50;99.90;;;;;;5029235;28;20088;-79
2023/05/23 09:35:32;;;;;;;13.48;1.85;;;13.50;99.90;;;;;;5046646;28;20183;-79
2023/05/23 09:37:58;;;;;;;16.60;2.03;;;13.60;99.90;;;;;;5062218;28;20052;-79
2023/05/23 09:40:30;;;;;;;6.25;1.13;;;13.80;99.90;;;;;;5046302;28;20378;-79
2023/05/23 09:43:04;;;;;;;8.45;1.77;;;14.00;99.90;;;;;;5046113;28;20074;-78
2023/05/23 09:45:31;;;;;;;11.30;3.05;;;14.20;99.90;;;;;;5062486;28;20326;-78
2023/05/23 09:47:57;;;;;;;12.45;2.05;;;14.30;99.90;;;;;;5062739;28;20041;-78
2023/05/23 09:50:25;;;;;;;6.97;1.42;;;14.70;99.90;;;;;;5062381;28;20048;-78
2023/05/23 09:52:52;;;;;;;7.15;1.88;;;15.00;99.90;;;;;;5062736;28;20106;-77
2023/05/23 09:55:18;;;;;;;9.02;2.08;;;15.00;99.90;;;;;;5062699;28;20413;-78
2023/05/23 09:57:48;;;;;;;6.65;1.50;;;15.10;99.90;;;;;;5062270;28;20076;-77
2023/05/23 10:00:15;;;;;;;12.73;2.08;;;15.40;99.90;;;;;;5045851;28;20123;-78
2023/05/23 10:02:53;;;;;;;10.40;1.33;;;15.40;99.90;;;;;;5046068;28;20048;-78
2023/05/23 10:05:46;;;;;;;11.15;1.73;;;15.30;99.90;;;;;;5063409;28;20037;-78
2023/05/23 10:08:32;;;;;;;8.65;1.23;;;15.10;99.90;;;;;;5053731;28;20498;-78
2023/05/23 10:11:15;;;;;;;5.47;1.40;;;15.10;99.90;;;;;;5062680;28;20040;-79
2023/05/23 10:13:44;;;;;;;8.57;1.67;;;15.00;99.90;;;;;;5046092;28;20473;-78
2023/05/23 10:16:39;;;;;;;7.78;1.10;;;14.90;99.90;;;;;;5062127;28;20494;-78
2023/05/23 10:19:22;;;;;;;10.98;2.08;;;14.90;99.90;;;;;;5062284;28;20057;-79
2023/05/23 10:21:59;;;;;;;11.52;1.42;;;15.00;99.90;;;;;;5045365;28;20059;-78
2023/05/23 10:24:26;;;;;;;16.50;1.88;;;15.10;99.90;;;;;;5045044;28;20109;-78
2023/05/23 10:26:53;;;;;;;17.20;1.83;;;15.00;99.90;;;;;;5045871;28;20048;-78
2023/05/23 10:29:21;;;;;;;18.15;1.98;;;14.80;99.90;;;;;;5061498;28;20124;-79
2023/05/23 10:31:47;;;;;;;6.05;1.35;;;14.60;99.90;;;;;;5061869;28;20048;-80
2023/05/23 10:34:33;;;;;;;5.93;1.55;;;14.60;99.90;;;;;;5044792;28;20102;-80
2023/05/23 10:37:07;;;;;;;8.32;1.70;;;14.60;99.90;;;;;;5061889;28;20074;-81
2023/05/23 10:39:51;;;;;;;8.77;1.75;;;14.50;99.90;;;;;;5062664;28;20083;-81
2023/05/23 10:42:23;;;;;;;10.80;2.95;;;14.90;99.90;;;;;;5045137;28;20410;-79
2023/05/23 10:44:49;;;;;;;11.60;1.60;;;15.20;99.90;;;;;;5062431;28;20063;-80
2023/05/23 10:47:27;;;;;;;7.15;1.42;;;15.40;99.90;;;;;;5045723;28;20487;-80
2023/05/23 10:49:54;;;;;;;7.82;1.48;;;15.80;99.90;;;;;;5062644;28;20513;-80
2023/05/23 10:52:25;;;;;;;16.20;1.67;;;16.10;99.90;;;;;;5063547;28;20246;-80
2023/05/23 10:54:52;;;;;;;5.43;1.13;;;16.30;99.90;;;;;;5046302;28;20389;-80
2023/05/23 10:57:21;;;;;;;6.05;1.50;;;15.70;99.90;;;;;;5062337;28;20033;-80
2023/05/23 10:59:50;;;;;;;6.88;1.30;;;16.00;99.90;;;;;;5046078;28;20455;-79
2023/05/23 11:02:26;;;;;;;11.02;1.80;;;15.80;99.90;;;;;;5062941;28;20048;-78
2023/05/23 11:05:22;;;;;;;7.68;1.48;;;15.50;99.90;;;;;;5062774;28;20119;-80
2023/05/23 11:08:13;;;;;;;12.73;1.55;;;15.40;99.90;;;;;;5055329;28;20420;-78
2023/05/23 11:10:58;;;;;;;5.38;1.33;;;15.30;99.90;;;;;;5032414;28;20154;-77
2023/05/23 11:13:24;;;;;;;8.77;1.73;;;15.30;99.90;;;;;;5065370;28;20075;-77
2023/05/23 11:15:49;;;;;;;9.98;1.92;;;15.60;99.90;;;;;;5066300;28;20529;-76
2023/05/23 11:18:25;;;;;;;12.55;2.15;;;15.90;99.90;;;;;;5066976;28;20131;-77
2023/05/23 11:20:52;;;;;;;7.72;1.17;;;15.90;99.90;;;;;;5065326;28;20130;-77
2023/05/23 11:23:18;;;;;;;12.13;2.13;;;15.60;99.90;;;;;;5048271;28;20064;-77
2023/05/23 11:25:52;;;;;;;9.90;2.05;;;15.30;99.90;;;;;;5064419;28;20052;-76
2023/05/23 11:28:19;;;;;;;8.73;2.13;;;15.20;99.90;;;;;;5064522;28;20063;-76
2023/05/23 11:30:48;;;;;;;12.70;2.05;;;15.10;99.90;;;;;;5048900;28;20060;-76
2023/05/23 11:33:15;;;;;;;5.68;1.23;;;15.30;99.90;;;;;;5047683;28;20449;-76
2023/05/23 11:35:46;;;;;;;7.03;1.88;;;15.20;99.90;;;;;;5048301;28;20119;-75
2023/05/23 11:38:16;;;;;;;10.18;1.98;;;15.10;99.90;;;;;;5064392;28;20147;-76
2023/05/23 11:40:47;;;;;;;9.40;2.13;;;15.00;99.90;;;;;;5064562;28;20101;-76
2023/05/23 11:43:16;;;;;;;8.73;2.00;;;15.10;99.90;;;;;;5065302;28;20091;-76
2023/05/23 11:45:45;;;;;;;6.40;1.40;;;15.50;99.90;;;;;;5064129;28;20174;-76
2023/05/23 11:48:12;;;;;;;7.43;1.00;;;15.80;99.90;;;;;;5048394;28;20178;-76
2023/05/23 13:48:42;;;;;;;13.15;1.35;;;16.20;99.90;;;;;;5108955;27;20504;-77
2023/05/23 13:51:07;;;;;;;5.00;1.20;;;16.50;99.90;;;;;;5073323;28;20068;-78
2023/05/23 13:53:33;;;;;;;4.75;1.23;;;16.40;99.90;;;;;;5106762;28;20056;-78
2023/05/23 13:55:59;;;;;;;11.20;1.70;;;16.50;99.90;;;;;;5073564;28;20043;-78
2023/05/23 13:58:24;;;;;;;10.75;1.48;;;16.80;99.90;;;;;;5106052;28;20127;-78
2023/05/23 14:00:51;;;;;;;12.18;1.42;;;16.90;99.90;;;;;;5073364;28;20082;-78
2023/05/23 14:03:18;;;;;;;9.38;1.50;;;16.90;99.90;;;;;;5089558;28;20399;-78
2023/05/23 14:05:44;;;;;;;4.18;1.05;;;16.90;99.90;;;;;;5090232;28;20131;-78
2023/05/23 14:08:12;;;;;;;8.13;1.67;;;16.90;99.90;;;;;;5106607;28;20154;-79
2023/05/23 14:10:39;;;;;;;2.88;0.95;;;16.80;99.90;;;;;;5072507;28;20040;-78
2023/05/23 14:13:07;;;;;;;5.55;0.95;;;16.80;99.90;;;;;;5073532;28;20463;-78
2023/05/23 14:15:34;;;;;;;11.65;1.50;;;16.90;99.90;;;;;;5106228;28;20507;-77
2023/05/23 14:18:00;;;;;;;7.60;1.70;;;17.00;99.90;;;;;;5106999;28;20044;-79
2023/05/23 14:20:25;;;;;;;9.73;1.35;;;17.10;99.90;;;;;;5105825;28;20251;-79
2023/05/23 14:22:51;;;;;;;10.35;1.40;;;17.00;99.90;;;;;;5089910;28;20040;-79
2023/05/23 14:25:18;;;;;;;11.00;1.52;;;16.90;99.90;;;;;;5072460;28;20447;-79
2023/05/23 14:27:43;;;;;;;8.40;1.60;;;16.70;99.90;;;;;;5072650;28;20157;-79
2023/05/23 14:30:10;;;;;;;2.63;0.70;;;16.40;99.90;;;;;;5056536;28;20130;-79
2023/05/23 14:32:39;;;;;;;8.02;1.42;;;16.30;99.90;;;;;;5089061;28;20109;-80
2023/05/23 14:35:06;;;;;;;7.85;0.98;;;16.30;99.90;;;;;;5090161;28;20055;-79
2023/05/23 14:37:32;;;;;;;6.13;1.15;;;16.50;99.90;;;;;;5088707;28;20044;-80
2023/05/23 14:39:58;;;;;;;7.43;1.15;;;16.60;99.90;;;;;;5089674;28;20438;-79
2023/05/23 14:42:23;;;;;;;11.90;1.17;;;16.80;99.90;;;;;;5072437;28;20043;-79